Time;durP1;ratioP1;P1;durP2;ratioP2;P2;SDS_P1;SDS_P2;PMS_P1;PMS_P2;Temp;Humidity;BMP_temperature;BMP_pressure;BME280_temperature;BME280_humidity;BME280_pressure;Samples;Min_cycle;Max_cycle;Signal;HPM_P1;HPM_P2
2022/05/03 00:01:37;;;;;;;14.23;11.63;;;16.10;67.50;;;;;;4995804;28;20018;-62
2022/05/03 00:04:12;;;;;;;11.95;10.63;;;16.10;68.10;;;;;;4995950;28;20494;-63
2022/05/03 00:06:49;;;;;;;12.15;10.77;;;16.20;67.40;;;;;;4996054;28;20034;-62
2022/05/03 00:09:25;;;;;;;11.60;10.50;;;16.10;67.40;;;;;;4995935;28;20483;-63
2022/05/03 00:12:01;;;;;;;11.75;10.40;;;16.10;67.20;;;;;;4995845;28;20026;-61
2022/05/03 00:14:36;;;;;;;14.57;10.95;;;16.00;67.30;;;;;;4995965;28;20021;-63
2022/05/03 00:17:03;;;;;;;14.40;10.50;;;16.00;67.10;;;;;;4995839;28;20045;-62
2022/05/03 00:19:30;;;;;;;13.40;10.82;;;16.00;67.10;;;;;;4995791;28;20034;-63
2022/05/03 00:21:57;;;;;;;13.35;10.98;;;16.00;67.20;;;;;;4995728;28;20026;-62
2022/05/03 00:24:23;;;;;;;11.40;10.23;;;16.00;67.30;;;;;;4995767;28;20097;-64
2022/05/03 00:26:49;;;;;;;11.60;10.43;;;15.90;67.90;;;;;;4995290;28;20137;-62
2022/05/03 00:29:16;;;;;;;12.30;10.38;;;15.90;67.20;;;;;;4995442;28;20037;-62
2022/05/03 00:31:43;;;;;;;13.13;10.25;;;15.90;67.30;;;;;;4995545;28;20072;-63
2022/05/03 00:34:10;;;;;;;14.90;10.93;;;15.90;67.30;;;;;;4995637;28;20049;-63
2022/05/03 00:36:36;;;;;;;11.77;9.65;;;15.80;67.50;;;;;;4995412;28;20068;-63
2022/05/03 00:39:02;;;;;;;12.95;10.85;;;15.80;67.40;;;;;;4995365;28;20044;-60
2022/05/03 00:41:49;;;;;;;12.13;10.82;;;15.80;67.50;;;;;;4995429;28;20026;-63
2022/05/03 00:44:55;;;;;;;15.90;10.63;;;15.80;67.60;;;;;;4995099;28;20034;-57
2022/05/03 00:47:46;;;;;;;13.85;10.25;;;15.80;67.50;;;;;;4995449;28;20476;-58
2022/05/03 00:50:19;;;;;;;12.20;10.95;;;15.80;67.30;;;;;;4995207;28;20029;-63
2022/05/03 00:52:55;;;;;;;11.48;10.27;;;15.70;67.30;;;;;;4995295;28;20097;-63
2022/05/03 00:55:32;;;;;;;11.77;10.35;;;15.70;67.50;;;;;;4994782;28;20034;-63
2022/05/03 00:58:22;;;;;;;11.35;10.15;;;15.70;67.30;;;;;;4994958;28;20109;-62
2022/05/03 01:01:22;;;;;;;11.35;10.20;;;15.60;67.30;;;;;;4994923;28;20054;-59
2022/05/03 01:04:05;;;;;;;16.00;10.90;;;15.60;67.40;;;;;;4994976;28;20038;-62
2022/05/03 01:06:42;;;;;;;12.27;10.40;;;15.60;67.30;;;;;;4995043;28;20031;-64
2022/05/03 01:09:09;;;;;;;11.70;10.52;;;15.60;67.50;;;;;;4994241;28;20068;-62
2022/05/03 01:11:52;;;;;;;14.25;10.60;;;15.60;67.70;;;;;;4994908;28;20030;-58
2022/05/03 01:14:39;;;;;;;;;;;15.60;67.80;;;;;;4994587;28;20023;-63
2022/05/03 01:17:35;;;;;;;11.77;10.57;;;15.50;67.60;;;;;;4994812;28;19921;-63
2022/05/03 01:20:08;;;;;;;12.13;10.82;;;15.50;67.90;;;;;;4994481;28;20062;-63
2022/05/03 01:22:55;;;;;;;12.30;11.10;;;15.50;67.90;;;;;;4994863;28;20092;-63
2022/05/03 01:25:50;;;;;;;14.98;11.30;;;15.50;68.00;;;;;;4994311;28;20031;-62
2022/05/03 01:28:32;;;;;;;11.52;10.32;;;15.40;67.60;;;;;;4994693;28;20065;-63
2022/05/03 01:31:03;;;;;;;12.02;10.90;;;15.40;67.70;;;;;;4994468;28;20033;-62
2022/05/03 01:33:41;;;;;;;12.95;11.63;;;15.40;67.70;;;;;;4994702;28;20045;-63
2022/05/03 01:36:09;;;;;;;11.45;10.23;;;15.40;67.80;;;;;;4994338;28;20384;-63
2022/05/03 01:39:08;;;;;;;13.20;11.77;;;15.30;67.90;;;;;;4994138;28;20054;-60
2022/05/03 01:41:42;;;;;;;12.13;10.80;;;15.30;68.10;;;;;;4994347;28;20054;-64
2022/05/03 01:44:26;;;;;;;12.10;10.63;;;15.30;68.20;;;;;;4994208;28;20023;-64
2022/05/03 01:47:24;;;;;;;13.65;11.98;;;15.30;68.20;;;;;;4994207;28;20109;-64
2022/05/03 01:50:29;;;;;;;13.13;11.55;;;15.30;68.30;;;;;;4994151;28;20049;-63
2022/05/03 01:53:04;;;;;;;14.75;11.65;;;15.30;68.30;;;;;;4993986;28;20101;-63
2022/05/03 01:55:44;;;;;;;15.25;12.20;;;15.20;68.50;;;;;;4994199;28;20452;-62
2022/05/03 01:58:20;;;;;;;12.85;11.35;;;15.30;68.60;;;;;;4994104;28;20065;-62
2022/05/03 02:01:04;;;;;;;14.15;12.23;;;15.20;68.70;;;;;;4993788;28;20022;-63
2022/05/03 02:03:50;;;;;;;16.48;11.68;;;15.20;68.60;;;;;;4994056;28;20031;-63
2022/05/03 02:06:28;;;;;;;12.95;11.68;;;15.20;68.80;;;;;;4993881;28;20026;-63
2022/05/03 02:09:05;;;;;;;14.05;12.23;;;15.20;69.70;;;;;;4993567;28;20026;-63
2022/05/03 02:11:48;;;;;;;13.50;12.07;;;15.10;69.00;;;;;;4993780;28;20096;-62
2022/05/03 02:14:44;;;;;;;15.82;12.43;;;15.10;69.10;;;;;;4993959;28;20049;-63
2022/05/03 02:17:34;;;;;;;19.02;12.77;;;15.10;69.30;;;;;;4993870;28;20381;-62
2022/05/03 02:20:37;;;;;;;13.80;12.27;;;15.10;69.20;;;;;;4993630;28;20496;-62
2022/05/03 02:23:10;;;;;;;15.10;13.43;;;15.00;69.30;;;;;;4993426;28;20543;-63
2022/05/03 02:25:36;;;;;;;14.60;12.45;;;15.00;69.30;;;;;;4993266;28;20054;-63
2022/05/03 02:28:17;;;;;;;14.02;12.57;;;15.00;69.30;;;;;;4993667;28;20018;-63
2022/05/03 02:30:49;;;;;;;17.02;12.52;;;15.00;69.50;;;;;;4993457;28;20038;-65
2022/05/03 02:33:31;;;;;;;15.77;12.88;;;15.00;69.50;;;;;;4993542;28;20535;-65
2022/05/03 02:35:59;;;;;;;18.15;13.70;;;15.00;69.40;;;;;;4993190;28;20026;-62
2022/05/03 02:38:34;;;;;;;14.20;12.77;;;15.00;69.50;;;;;;4993520;28;20041;-64
2022/05/03 02:41:03;;;;;;;14.07;12.52;;;14.90;69.50;;;;;;4993495;28;20018;-65
2022/05/03 02:43:30;;;;;;;14.93;13.10;;;14.90;69.70;;;;;;5004712;28;20030;-63
2022/05/03 02:46:09;;;;;;;13.95;12.48;;;14.90;69.90;;;;;;5012554;28;20034;-63
2022/05/03 02:48:43;;;;;;;16.33;13.43;;;14.90;70.20;;;;;;5011444;28;20416;-63
2022/05/03 02:51:09;;;;;;;16.73;13.68;;;14.80;70.00;;;;;;5012486;28;20100;-60
2022/05/03 02:53:44;;;;;;;16.65;13.00;;;14.80;70.10;;;;;;5013074;28;20061;-62
2022/05/03 02:56:24;;;;;;;16.33;13.98;;;14.80;70.20;;;;;;5012950;28;20034;-63
2022/05/03 02:59:06;;;;;;;15.70;14.10;;;14.80;70.30;;;;;;5013010;28;20123;-63
2022/05/03 03:02:02;;;;;;;16.63;14.27;;;14.80;70.40;;;;;;5012999;28;20088;-62
2022/05/03 03:04:40;;;;;;;18.50;15.20;;;14.80;70.30;;;;;;5013391;28;20143;-63
2022/05/03 03:07:07;;;;;;;17.02;15.23;;;14.80;70.40;;;;;;5012635;28;20022;-62
2022/05/03 03:09:43;;;;;;;17.38;15.52;;;14.70;70.50;;;;;;5012903;28;20025;-62
2022/05/03 03:12:30;;;;;;;17.30;15.40;;;14.70;70.50;;;;;;5012662;28;20057;-63
2022/05/03 03:15:04;;;;;;;16.85;14.88;;;14.70;70.60;;;;;;5012865;28;20026;-63
2022/05/03 03:17:41;;;;;;;17.45;15.68;;;14.70;70.70;;;;;;5012729;28;20026;-63
2022/05/03 03:20:14;;;;;;;17.95;15.75;;;14.60;70.90;;;;;;5012414;28;20026;-63
2022/05/03 03:22:47;;;;;;;16.95;15.25;;;14.60;70.90;;;;;;5012710;28;20475;-62
2022/05/03 03:25:17;;;;;;;22.60;17.23;;;14.60;71.00;;;;;;5012678;28;20026;-64
2022/05/03 03:27:44;;;;;;;19.65;16.73;;;14.60;71.00;;;;;;5012753;28;20160;-63
2022/05/03 03:30:12;;;;;;;19.67;15.95;;;14.60;68.50;;;;;;5012667;28;20026;-61
2022/05/03 03:32:47;;;;;;;18.23;16.23;;;14.70;67.60;;;;;;5012696;28;20037;-64
2022/05/03 03:35:14;;;;;;;19.20;16.52;;;14.70;67.10;;;;;;5012420;28;20105;-63
2022/05/03 03:37:46;;;;;;;20.80;17.30;;;14.70;67.10;;;;;;5015227;28;20030;-63
2022/05/03 03:40:13;;;;;;;21.20;16.48;;;14.70;67.10;;;;;;5016278;28;20018;-61
2022/05/03 03:42:40;;;;;;;18.58;16.77;;;14.70;67.40;;;;;;5015937;28;20026;-62
2022/05/03 03:45:07;;;;;;;18.42;16.50;;;14.70;67.30;;;;;;5016130;28;20377;-64
2022/05/03 03:47:38;;;;;;;17.75;15.70;;;14.70;67.50;;;;;;5015925;28;20511;-64
2022/05/03 03:50:05;;;;;;;18.27;16.27;;;14.60;67.60;;;;;;5015752;28;20026;-64
2022/05/03 03:52:33;;;;;;;19.45;17.42;;;14.60;67.80;;;;;;5015806;28;20026;-63
2022/05/03 03:54:59;;;;;;;19.88;16.35;;;14.60;67.70;;;;;;5015859;28;20014;-61
2022/05/03 03:57:25;;;;;;;19.90;17.38;;;14.60;67.80;;;;;;5015866;28;20048;-61
2022/05/03 03:59:51;;;;;;;19.63;16.70;;;14.60;68.70;;;;;;5015842;28;20056;-64
2022/05/03 04:02:17;;;;;;;19.42;17.33;;;14.60;68.10;;;;;;5015711;28;20432;-63
2022/05/03 04:04:44;;;;;;;18.13;16.25;;;14.50;68.20;;;;;;5015643;28;20360;-64
2022/05/03 04:07:10;;;;;;;18.60;16.65;;;14.50;68.40;;;;;;5015626;28;20022;-63
2022/05/03 04:09:36;;;;;;;19.65;17.02;;;14.50;68.50;;;;;;5015549;28;20022;-56
2022/05/03 04:12:03;;;;;;;19.88;16.77;;;14.50;68.60;;;;;;5015554;28;20059;-59
2022/05/03 04:14:29;;;;;;;20.42;16.88;;;14.50;68.80;;;;;;5015588;28;20026;-64
2022/05/03 04:16:56;;;;;;;19.63;17.60;;;14.50;68.90;;;;;;5015433;28;20034;-59
2022/05/03 04:19:23;;;;;;;20.15;16.52;;;14.50;69.20;;;;;;5015277;28;20029;-62
2022/05/03 04:21:49;;;;;;;21.27;16.83;;;14.40;69.30;;;;;;5012963;28;20026;-63
2022/05/03 04:24:15;;;;;;;21.20;18.38;;;14.40;69.40;;;;;;5015057;28;20029;-63
2022/05/03 04:26:41;;;;;;;20.02;16.30;;;14.40;69.60;;;;;;5020044;28;20080;-62
2022/05/03 04:29:08;;;;;;;21.85;18.15;;;14.40;69.70;;;;;;5014228;28;20038;-63
2022/05/03 04:31:35;;;;;;;20.05;17.17;;;14.40;69.80;;;;;;5014817;28;20552;-62
2022/05/03 04:34:03;;;;;;;21.80;18.27;;;14.40;70.00;;;;;;5014650;28;20026;-60
2022/05/03 04:36:30;;;;;;;23.48;19.70;;;14.40;70.30;;;;;;5015224;28;20022;-61
2022/05/03 04:38:56;;;;;;;22.90;19.90;;;14.40;70.40;;;;;;5014917;28;20068;-63
2022/05/03 04:41:23;;;;;;;21.38;18.33;;;14.30;71.20;;;;;;5010856;28;20097;-63
2022/05/03 04:43:49;;;;;;;22.27;19.23;;;14.30;73.10;;;;;;5013659;28;20030;-63
2022/05/03 04:46:15;;;;;;;25.05;19.95;;;14.30;73.50;;;;;;5014374;28;20034;-60
2022/05/03 04:48:42;;;;;;;24.50;20.05;;;14.30;73.90;;;;;;5014903;28;20426;-63
2022/05/03 04:51:22;;;;;;;22.52;19.98;;;14.20;74.20;;;;;;5014760;28;20515;-64
2022/05/03 04:53:48;;;;;;;21.58;17.92;;;14.20;74.40;;;;;;5013475;28;20149;-63
2022/05/03 04:56:17;;;;;;;23.15;20.67;;;14.20;74.90;;;;;;5004777;28;20109;-63
2022/05/03 04:58:43;;;;;;;22.38;19.80;;;14.20;75.00;;;;;;4996779;28;20443;-64
2022/05/03 05:01:08;;;;;;;23.02;20.52;;;14.20;75.20;;;;;;4996816;28;20476;-64
2022/05/03 05:03:34;;;;;;;24.98;20.70;;;14.20;75.30;;;;;;5012419;28;20410;-63
2022/05/03 05:05:59;;;;;;;23.58;20.70;;;14.10;75.70;;;;;;5012000;28;20021;-63
2022/05/03 05:08:25;;;;;;;26.35;22.08;;;14.20;75.70;;;;;;5012619;28;20037;-62
2022/05/03 05:10:50;;;;;;;24.40;21.58;;;14.10;76.00;;;;;;5013652;28;20026;-63
2022/05/03 05:13:16;;;;;;;23.80;20.63;;;14.10;76.20;;;;;;5014537;28;20018;-62
2022/05/03 05:15:42;;;;;;;24.55;21.92;;;14.10;76.40;;;;;;5014026;28;20080;-63
2022/05/03 05:18:08;;;;;;;25.50;21.95;;;14.10;76.50;;;;;;5013453;28;20049;-63
2022/05/03 05:20:34;;;;;;;25.05;22.35;;;14.10;76.60;;;;;;5011487;28;20032;-64
2022/05/03 05:22:59;;;;;;;25.10;21.80;;;14.10;76.90;;;;;;5012459;28;20031;-64
2022/05/03 05:25:25;;;;;;;25.73;22.50;;;14.10;76.90;;;;;;4994041;28;20423;-63
2022/05/03 05:27:51;;;;;;;28.05;22.50;;;14.10;77.10;;;;;;5004611;28;20133;-64
2022/05/03 05:30:16;;;;;;;26.15;23.38;;;14.10;77.30;;;;;;4994648;28;20023;-63
2022/05/03 05:32:42;;;;;;;27.83;22.73;;;14.10;77.30;;;;;;4998027;28;20057;-58
2022/05/03 05:35:08;;;;;;;26.67;21.83;;;14.10;77.70;;;;;;5019882;28;20356;-63
2022/05/03 05:37:34;;;;;;;27.33;23.35;;;14.10;77.90;;;;;;5012653;28;20380;-62
2022/05/03 05:39:59;;;;;;;29.02;24.50;;;14.10;78.10;;;;;;5012315;28;20060;-63
2022/05/03 05:42:26;;;;;;;26.17;22.80;;;14.10;78.30;;;;;;5012423;28;20061;-63
2022/05/03 05:44:52;;;;;;;28.80;23.73;;;14.10;78.60;;;;;;5003040;28;20015;-58
2022/05/03 05:47:18;;;;;;;27.88;23.60;;;14.10;78.80;;;;;;5013057;28;20029;-62
2022/05/03 05:49:43;;;;;;;27.42;23.88;;;14.20;79.20;;;;;;5016411;28;20018;-63
2022/05/03 05:54:53;;;;;;;27.85;22.35;;;14.20;79.60;;;;;;5011254;28;20057;-62
2022/05/03 05:57:20;;;;;;;26.27;23.48;;;14.30;79.80;;;;;;5013930;28;20038;-64
2022/05/03 05:59:45;;;;;;;22.83;18.85;;;14.30;80.10;;;;;;5006537;28;20018;-63
2022/05/03 06:02:11;;;;;;;29.05;24.15;;;14.30;79.80;;;;;;5018924;28;20040;-62
2022/05/03 06:04:37;;;;;;;27.45;22.92;;;14.40;80.50;;;;;;5017502;28;20274;-62
2022/05/03 06:07:02;;;;;;;25.98;21.73;;;14.40;80.30;;;;;;5012031;28;20036;-61
2022/05/03 06:09:28;;;;;;;33.17;23.77;;;14.50;80.10;;;;;;5013642;28;20189;-62
2022/05/03 06:11:54;;;;;;;27.88;22.67;;;14.50;79.60;;;;;;4997774;28;20033;-88
2022/05/03 06:14:19;;;;;;;31.95;23.02;;;14.60;79.30;;;;;;5010240;28;20064;-63
2022/05/03 06:16:55;;;;;;;28.08;22.70;;;14.60;78.80;;;;;;5012023;28;20029;-64
2022/05/03 06:19:22;;;;;;;24.73;21.23;;;14.70;79.20;;;;;;5011883;28;20113;-64
2022/05/03 06:21:48;;;;;;;23.60;21.10;;;14.70;79.20;;;;;;5012861;28;20471;-63
2022/05/03 06:24:14;;;;;;;26.55;21.85;;;14.70;79.20;;;;;;5010635;28;20073;-63
2022/05/03 06:26:40;;;;;;;27.10;21.42;;;14.80;79.30;;;;;;5010527;28;20088;-64
2022/05/03 06:29:08;;;;;;;25.50;21.23;;;14.80;78.80;;;;;;5012545;28;20036;-63
2022/05/03 06:31:35;;;;;;;29.50;22.23;;;14.90;78.90;;;;;;5013219;28;20065;-64
2022/05/03 06:34:01;;;;;;;20.52;18.23;;;14.90;79.00;;;;;;5013298;28;20017;-63
2022/05/03 06:36:27;;;;;;;24.27;18.83;;;14.90;78.80;;;;;;5012934;28;20088;-64
2022/05/03 06:38:52;;;;;;;23.55;20.92;;;15.00;79.20;;;;;;5013091;28;20060;-62
2022/05/03 06:41:18;;;;;;;26.55;21.25;;;15.10;78.90;;;;;;5013064;28;20403;-64
2022/05/03 06:43:44;;;;;;;23.55;20.90;;;15.10;78.10;;;;;;5012488;28;20495;-63
2022/05/03 06:46:10;;;;;;;25.83;20.95;;;15.10;77.50;;;;;;5012720;28;20018;-63
2022/05/03 06:48:36;;;;;;;23.52;19.95;;;15.20;77.60;;;;;;5013173;28;20041;-64
2022/05/03 06:51:02;;;;;;;22.00;19.25;;;15.20;77.70;;;;;;5012940;28;20022;-60
2022/05/03 06:53:27;;;;;;;21.50;19.20;;;15.30;76.50;;;;;;5012977;28;20172;-62
2022/05/03 06:55:53;;;;;;;24.05;18.05;;;15.30;76.10;;;;;;5012953;28;20029;-62
2022/05/03 06:58:19;;;;;;;24.13;19.02;;;15.30;76.30;;;;;;5012447;28;20399;-64
2022/05/03 07:00:44;;;;;;;20.52;17.25;;;15.30;75.70;;;;;;5012680;28;20030;-64
2022/05/03 07:03:10;;;;;;;21.90;18.63;;;15.40;75.80;;;;;;5011955;28;20025;-64
2022/05/03 07:05:35;;;;;;;22.75;18.88;;;15.40;75.00;;;;;;5012475;28;20026;-64
2022/05/03 07:08:01;;;;;;;23.20;19.00;;;15.50;75.30;;;;;;5011670;28;20026;-64
2022/05/03 07:10:27;;;;;;;21.40;16.55;;;15.50;75.00;;;;;;5012120;28;20026;-61
2022/05/03 07:12:52;;;;;;;20.05;16.77;;;15.60;74.70;;;;;;5015522;28;20037;-61
2022/05/03 07:15:21;;;;;;;20.27;16.40;;;15.70;73.80;;;;;;5016363;28;20022;-63
2022/05/03 07:23:16;;;;;;;17.17;15.18;;;15.80;73.30;;;;;;5016596;28;20125;-63
2022/05/03 07:25:44;;;;;;;19.27;15.75;;;15.90;73.20;;;;;;5016302;28;20030;-64
2022/05/03 07:28:11;;;;;;;16.80;14.85;;;15.90;73.10;;;;;;5016197;28;20407;-60
2022/05/03 07:30:36;;;;;;;17.60;14.63;;;15.90;73.60;;;;;;5016203;28;20022;-63
2022/05/03 07:33:03;;;;;;;17.88;13.88;;;16.00;73.40;;;;;;5016212;28;20382;-61
2022/05/03 07:35:29;;;;;;;14.55;11.60;;;16.00;73.50;;;;;;5016346;28;20018;-64
2022/05/03 07:37:54;;;;;;;12.73;10.57;;;16.10;74.20;;;;;;5016048;28;20049;-64
2022/05/03 07:40:21;;;;;;;13.43;10.50;;;16.10;73.50;;;;;;5016026;28;20014;-64
2022/05/03 07:42:47;;;;;;;11.70;9.95;;;16.10;72.80;;;;;;5015972;28;20483;-64
2022/05/03 07:45:13;;;;;;;12.75;10.13;;;16.20;72.40;;;;;;5016101;28;20022;-62
2022/05/03 07:47:38;;;;;;;10.57;8.82;;;16.30;71.90;;;;;;5015906;28;20563;-63
2022/05/03 07:50:05;;;;;;;10.13;8.80;;;16.30;72.20;;;;;;5016196;28;20042;-64
2022/05/03 07:52:31;;;;;;;13.13;9.40;;;16.30;71.30;;;;;;5015827;28;20062;-64
2022/05/03 07:54:57;;;;;;;10.40;8.63;;;16.40;69.90;;;;;;5015527;28;20040;-64
2022/05/03 07:57:24;;;;;;;11.85;8.68;;;16.50;69.40;;;;;;5015857;28;20483;-60
2022/05/03 07:59:54;;;;;;;9.93;8.93;;;16.50;68.50;;;;;;5015776;28;20025;-64
2022/05/03 08:02:21;;;;;;;10.95;8.80;;;16.60;68.20;;;;;;5015692;28;20108;-63
2022/05/03 08:04:48;;;;;;;10.40;7.75;;;16.60;67.10;;;;;;5015631;28;20375;-64
2022/05/03 08:07:14;;;;;;;11.50;7.93;;;16.60;67.80;;;;;;5015585;28;20030;-64
2022/05/03 08:09:39;;;;;;;10.50;9.43;;;16.60;68.20;;;;;;5015139;28;20084;-64
2022/05/03 08:12:05;;;;;;;10.68;9.05;;;16.70;67.70;;;;;;5015832;28;20137;-63
2022/05/03 08:14:32;;;;;;;11.73;10.23;;;16.70;68.20;;;;;;5015406;28;20033;-63
2022/05/03 08:16:58;;;;;;;10.48;9.30;;;16.80;67.90;;;;;;5015537;28;20030;-63
2022/05/03 08:19:24;;;;;;;16.60;9.93;;;16.80;67.60;;;;;;5015338;28;20018;-64
2022/05/03 08:21:52;;;;;;;10.93;9.55;;;16.90;67.60;;;;;;5015007;28;20026;-64
2022/05/03 08:24:18;;;;;;;10.57;9.13;;;16.90;67.90;;;;;;5015092;28;20022;-64
2022/05/03 08:26:44;;;;;;;13.48;9.63;;;16.90;68.40;;;;;;5015035;28;20080;-63
2022/05/03 08:29:10;;;;;;;11.63;10.25;;;17.00;68.80;;;;;;5015299;28;20120;-64
2022/05/03 08:31:35;;;;;;;14.02;10.07;;;17.00;68.30;;;;;;5015140;28;20026;-63
2022/05/03 08:34:02;;;;;;;10.45;9.45;;;17.00;68.30;;;;;;5015230;28;20026;-64
2022/05/03 08:36:31;;;;;;;11.20;9.27;;;17.00;68.40;;;;;;5015051;28;20036;-65
2022/05/03 08:44:26;;;;;;;14.30;11.23;;;17.20;68.10;;;;;;5014290;28;20045;-64
2022/05/03 08:46:55;;;;;;;14.65;10.88;;;17.30;66.60;;;;;;5015060;28;20026;-65
2022/05/03 08:49:23;;;;;;;12.05;10.80;;;17.20;67.00;;;;;;5014907;28;20022;-65
2022/05/03 08:51:52;;;;;;;12.57;10.35;;;17.30;66.80;;;;;;5014803;28;20030;-64
2022/05/03 08:54:18;;;;;;;14.80;11.23;;;17.30;66.80;;;;;;5014600;28;20025;-61
2022/05/03 08:56:43;;;;;;;12.27;11.00;;;17.30;67.00;;;;;;5014620;28;20026;-65
2022/05/03 08:59:09;;;;;;;11.95;10.60;;;17.30;67.10;;;;;;5014707;28;20456;-65
2022/05/03 09:01:36;;;;;;;12.18;10.52;;;17.40;67.60;;;;;;5014880;28;20026;-65
2022/05/03 09:04:02;;;;;;;15.38;11.27;;;17.40;67.60;;;;;;5014622;28;20029;-64
2022/05/03 09:06:45;;;;;;;15.48;11.57;;;17.40;67.50;;;;;;5014588;28;20072;-64
2022/05/03 09:09:12;;;;;;;13.23;11.52;;;17.50;67.50;;;;;;5012833;28;20041;-64
2022/05/03 09:11:46;;;;;;;13.25;11.77;;;17.50;67.20;;;;;;5014639;28;20026;-64
2022/05/03 09:14:32;;;;;;;10.25;8.98;;;17.50;66.70;;;;;;5014401;28;20045;-64
2022/05/03 09:16:58;;;;;;;9.27;8.15;;;17.50;67.20;;;;;;5014077;28;20046;-64
2022/05/03 09:19:25;;;;;;;14.27;10.95;;;17.50;66.80;;;;;;5014345;28;20038;-64
2022/05/03 09:25:04;;;;;;;11.27;9.60;;;17.60;66.50;;;;;;5014667;28;20044;-64
2022/05/03 09:27:31;;;;;;;13.75;10.30;;;17.60;66.70;;;;;;5014282;28;20038;-63
2022/05/03 09:30:09;;;;;;;9.13;8.10;;;17.60;66.60;;;;;;5013950;28;20101;-64
2022/05/03 09:32:47;;;;;;;11.32;9.90;;;17.60;66.70;;;;;;5014364;28;20400;-64
2022/05/03 09:35:32;;;;;;;9.85;8.85;;;17.60;66.20;;;;;;5013290;28;20038;-65
2022/05/03 09:37:59;;;;;;;8.10;6.97;;;17.70;66.10;;;;;;5013859;28;20036;-64
2022/05/03 09:40:25;;;;;;;10.98;7.70;;;17.70;66.80;;;;;;5013891;28;20026;-64
2022/05/03 09:42:55;;;;;;;8.80;7.70;;;17.70;66.90;;;;;;5013946;28;20030;-64
2022/05/03 09:45:25;;;;;;;11.75;6.88;;;17.70;66.60;;;;;;5013886;28;20026;-64
2022/05/03 09:47:56;;;;;;;10.30;8.15;;;17.80;66.20;;;;;;5013758;28;20022;-63
2022/05/03 09:50:42;;;;;;;12.25;9.52;;;17.80;65.30;;;;;;5013597;28;20022;-64
2022/05/03 09:53:08;;;;;;;10.32;9.27;;;17.80;65.30;;;;;;5013642;28;20110;-65
2022/05/03 09:55:37;;;;;;;11.57;8.95;;;17.80;65.30;;;;;;5013627;28;20469;-64
2022/05/03 09:58:05;;;;;;;12.18;8.25;;;17.80;64.90;;;;;;5013552;28;20129;-64
2022/05/03 10:00:33;;;;;;;11.00;8.35;;;17.90;65.50;;;;;;5013578;28;20415;-65
2022/05/03 10:03:00;;;;;;;12.20;9.40;;;17.90;65.70;;;;;;5013899;28;20041;-65
2022/05/03 10:05:26;;;;;;;11.15;8.10;;;17.90;65.80;;;;;;5013260;28;20018;-64
2022/05/03 10:07:53;;;;;;;10.77;8.45;;;17.90;66.00;;;;;;5013838;28;20052;-64
2022/05/03 10:10:20;;;;;;;10.68;9.43;;;17.90;65.60;;;;;;5013497;28;20033;-64
2022/05/03 10:12:47;;;;;;;8.23;7.22;;;18.00;65.20;;;;;;5013610;28;20041;-64
2022/05/03 10:20:35;;;;;;;8.20;7.40;;;18.00;65.50;;;;;;5013251;28;20022;-65
2022/05/03 10:20:48;;;;;;;10.60;9.60;;;18.00;65.50;;;;;;5012997;28;20502;-65
2022/05/03 10:23:21;;;;;;;12.63;10.65;;;18.00;65.60;;;;;;5013344;28;20049;-65
2022/05/03 10:25:47;;;;;;;10.45;9.10;;;18.00;65.80;;;;;;5013049;28;20022;-62
2022/05/03 10:28:13;;;;;;;10.13;8.75;;;18.10;66.40;;;;;;5013288;28;20041;-63
2022/05/03 10:30:39;;;;;;;8.02;7.18;;;18.10;66.20;;;;;;5013149;28;20030;-63
2022/05/03 10:33:19;;;;;;;11.65;9.45;;;18.10;66.30;;;;;;5013266;28;20029;-64
2022/05/03 10:35:46;;;;;;;10.18;9.05;;;18.10;66.20;;;;;;5012988;28;20026;-64
2022/05/03 10:38:12;;;;;;;13.27;11.77;;;18.10;66.30;;;;;;5013017;28;20030;-64
2022/05/03 10:40:47;;;;;;;15.30;11.07;;;18.20;66.30;;;;;;5013196;28;20393;-64
2022/05/03 10:43:25;;;;;;;11.65;10.40;;;18.20;66.30;;;;;;5012998;28;20430;-65
2022/05/03 10:46:07;;;;;;;13.02;11.73;;;18.10;66.10;;;;;;5014746;28;20037;-64
2022/05/03 10:48:36;;;;;;;12.52;11.27;;;18.20;66.30;;;;;;5017150;28;20026;-63
2022/05/03 10:51:04;;;;;;;13.40;12.00;;;18.20;66.50;;;;;;5016811;28;20061;-61
2022/05/03 10:53:38;;;;;;;11.68;10.05;;;18.20;66.40;;;;;;5017322;28;20062;-65
2022/05/03 10:56:22;;;;;;;13.73;12.27;;;18.20;66.70;;;;;;5017068;28;20382;-64
2022/05/03 10:59:15;;;;;;;13.73;11.90;;;18.20;66.20;;;;;;5016949;28;20495;-64
2022/05/03 11:01:56;;;;;;;12.68;11.45;;;18.20;66.00;;;;;;5016956;28;20113;-64
2022/05/03 11:04:23;;;;;;;13.65;12.23;;;18.20;66.00;;;;;;5016699;28;20025;-64
2022/05/03 11:06:51;;;;;;;14.00;12.70;;;18.20;66.30;;;;;;5016857;28;20025;-65
2022/05/03 11:09:28;;;;;;;11.80;9.98;;;18.20;66.30;;;;;;5016665;28;20022;-64
2022/05/03 11:11:56;;;;;;;16.20;14.65;;;18.30;66.70;;;;;;5016804;28;20025;-63
2022/05/03 11:14:22;;;;;;;12.30;9.80;;;18.30;67.00;;;;;;5016979;28;20025;-64
2022/05/03 11:16:49;;;;;;;14.80;10.40;;;18.30;67.10;;;;;;5016661;28;20026;-63
2022/05/03 11:19:19;;;;;;;8.65;6.55;;;18.30;67.10;;;;;;5016330;28;20498;-64
2022/05/03 11:21:47;;;;;;;11.85;10.73;;;18.30;66.70;;;;;;5016396;28;20026;-64
2022/05/03 11:24:21;;;;;;;12.43;10.60;;;18.40;65.70;;;;;;5016607;28;20109;-65
2022/05/03 11:26:50;;;;;;;13.65;12.35;;;18.40;65.40;;;;;;5016227;28;20088;-65
2022/05/03 11:29:16;;;;;;;12.90;11.63;;;18.40;65.70;;;;;;5016421;28;20034;-64
2022/05/03 11:31:49;;;;;;;12.02;10.93;;;18.40;65.90;;;;;;5016319;28;20364;-65
2022/05/03 11:34:17;;;;;;;12.20;10.80;;;18.40;65.60;;;;;;5016024;28;20037;-64
2022/05/03 11:36:44;;;;;;;12.45;11.18;;;18.40;65.50;;;;;;5016283;28;20053;-64
2022/05/03 11:39:10;;;;;;;12.57;11.32;;;18.40;65.20;;;;;;5016362;28;20045;-64
2022/05/03 11:41:37;;;;;;;11.77;10.68;;;18.40;65.40;;;;;;5016424;28;20475;-64
2022/05/03 11:44:03;;;;;;;12.45;10.75;;;18.50;66.00;;;;;;5016223;28;20022;-64
2022/05/03 11:46:29;;;;;;;10.30;9.30;;;18.50;66.00;;;;;;5016181;28;20028;-61
2022/05/03 11:49:01;;;;;;;12.43;9.80;;;18.50;66.10;;;;;;5015672;28;20084;-64
2022/05/03 11:57:47;;;;;;;11.52;10.45;;;18.60;66.30;;;;;;5015148;28;20049;-64
2022/05/03 12:00:13;;;;;;;9.55;8.02;;;18.60;66.30;;;;;;5015490;28;20037;-64
2022/05/03 12:02:42;;;;;;;11.05;10.05;;;18.60;66.50;;;;;;5015462;28;20414;-65
2022/05/03 12:05:08;;;;;;;13.45;12.13;;;18.60;66.90;;;;;;5015734;28;20024;-64
2022/05/03 12:07:49;;;;;;;11.85;10.63;;;18.60;66.80;;;;;;5015702;28;20026;-64
2022/05/03 12:10:25;;;;;;;10.65;9.45;;;18.60;66.50;;;;;;5015713;28;20361;-64
2022/05/03 12:13:22;;;;;;;10.88;9.73;;;18.60;66.40;;;;;;5015478;28;20022;-64
2022/05/03 12:15:57;;;;;;;9.65;8.68;;;18.70;66.60;;;;;;5015408;28;20022;-64
2022/05/03 12:18:30;;;;;;;13.35;11.18;;;18.70;67.00;;;;;;5015244;28;20033;-64
2022/05/03 12:20:57;;;;;;;41.38;12.60;;;18.70;67.40;;;;;;5015604;28;20022;-63
2022/05/03 12:23:36;;;;;;;12.45;8.93;;;18.70;67.20;;;;;;5015232;28;20475;-61
2022/05/03 12:26:20;;;;;;;11.02;9.77;;;18.70;67.20;;;;;;5015251;28;20033;-65
2022/05/03 12:28:57;;;;;;;10.13;9.00;;;18.70;67.10;;;;;;5015351;28;20165;-64
2022/05/03 12:31:30;;;;;;;7.97;7.20;;;18.70;66.10;;;;;;5015074;28;20026;-63
2022/05/03 12:33:57;;;;;;;9.55;8.65;;;18.70;64.70;;;;;;5015171;28;20018;-64
2022/05/03 12:36:35;;;;;;;7.28;6.57;;;18.80;65.50;;;;;;5014993;28;20387;-65
2022/05/03 12:39:21;;;;;;;9.48;8.55;;;18.80;66.00;;;;;;5014917;28;20041;-63
2022/05/03 12:41:55;;;;;;;9.27;7.80;;;18.80;65.50;;;;;;5014928;28;20531;-64
2022/05/03 12:44:22;;;;;;;10.55;8.98;;;18.80;65.20;;;;;;5014719;28;20022;-65
2022/05/03 12:46:50;;;;;;;8.75;7.85;;;18.80;65.20;;;;;;5014574;28;20021;-64
2022/05/03 12:49:16;;;;;;;9.45;8.45;;;18.80;65.10;;;;;;5014310;28;20152;-64
2022/05/03 12:51:44;;;;;;;9.77;7.57;;;18.80;64.90;;;;;;5014631;28;20371;-63
2022/05/03 12:54:13;;;;;;;9.00;8.10;;;18.80;64.20;;;;;;5014605;28;20025;-64
2022/05/03 12:59:25;;;;;;;10.45;9.07;;;18.90;64.60;;;;;;5014287;28;20049;-62
2022/05/03 13:01:57;;;;;;;8.90;8.00;;;18.90;65.10;;;;;;5014430;28;20056;-65
2022/05/03 13:04:24;;;;;;;8.20;6.77;;;18.90;64.60;;;;;;5012960;28;20022;-64
2022/05/03 13:06:52;;;;;;;10.70;9.70;;;18.90;65.10;;;;;;5008814;28;20109;-64
2022/05/03 13:09:18;;;;;;;9.77;7.95;;;18.90;65.30;;;;;;5011400;28;20029;-65
2022/05/03 13:11:44;;;;;;;10.20;9.20;;;18.90;64.30;;;;;;5003025;28;20113;-63
2022/05/03 13:14:11;;;;;;;9.98;8.93;;;18.90;64.70;;;;;;5012039;28;20404;-63
2022/05/03 13:16:37;;;;;;;9.38;8.35;;;18.90;65.30;;;;;;5008916;28;20030;-63
2022/05/03 13:19:03;;;;;;;8.45;7.20;;;19.00;65.60;;;;;;5013274;28;20083;-64